createdAt,value
2019-02-14T00:01:34.228Z,101689.07
2019-02-14T00:04:01.157Z,101691.64
2019-02-14T00:06:28.966Z,101685.63
2019-02-14T00:08:56.562Z,101681.92
2019-02-14T00:11:23.806Z,101679.35
2019-02-14T00:13:50.796Z,101675.47
2019-02-14T00:16:17.755Z,101677.82
2019-02-14T00:18:44.732Z,101677.64
2019-02-14T00:21:12.285Z,101681.27
2019-02-14T00:23:39.560Z,101678.34
2019-02-14T00:26:06.572Z,101681.16
2019-02-14T00:28:33.541Z,101680.06
2019-02-14T00:31:01.536Z,101683.61
2019-02-14T00:33:28.503Z,101676.27
2019-02-14T00:35:55.401Z,101682.95
2019-02-14T00:38:22.493Z,101678.64
2019-02-14T00:40:49.453Z,101677.05
2019-02-14T00:43:16.750Z,101687.70
2019-02-14T00:45:44.690Z,101686.30
2019-02-14T00:48:11.950Z,101689.09
2019-02-14T00:50:39.099Z,101692.18
2019-02-14T00:53:06.048Z,101691.41
2019-02-14T00:55:33.526Z,101697.95
2019-02-14T00:58:00.474Z,101706.41
2019-02-14T01:00:27.344Z,101702.47
2019-02-14T01:02:54.258Z,101704.48
2019-02-14T01:05:21.219Z,101702.39
2019-02-14T01:07:48.249Z,101695.66
2019-02-14T01:10:15.605Z,101697.42
2019-02-14T01:12:42.846Z,101701.93
2019-02-14T01:15:09.761Z,101700.09
2019-02-14T01:17:37.266Z,101699.92
2019-02-14T01:20:04.186Z,101701.98
2019-02-14T01:22:31.065Z,101704.50
2019-02-14T01:24:58.400Z,101703.84
2019-02-14T01:27:25.650Z,101706.34
2019-02-14T01:29:52.586Z,101710.25
2019-02-14T01:32:19.560Z,101709.52
2019-02-14T01:34:46.461Z,101700.48
2019-02-14T01:37:13.647Z,101704.83
2019-02-14T01:39:40.618Z,101706.28
2019-02-14T01:42:07.526Z,101701.39
2019-02-14T01:44:34.785Z,101698.59
2019-02-14T01:47:01.697Z,101702.07
2019-02-14T01:49:29.015Z,101701.20
2019-02-14T01:51:56.026Z,101696.58
2019-02-14T01:54:23.391Z,101702.22
2019-02-14T01:56:50.284Z,101697.41
2019-02-14T01:59:17.490Z,101696.55
2019-02-14T02:01:44.450Z,101693.59
2019-02-14T02:04:11.784Z,101692.49
2019-02-14T02:06:39.036Z,101693.90
2019-02-14T02:09:06.202Z,101689.05
2019-02-14T02:11:35.306Z,101688.57
2019-02-14T02:14:02.589Z,101698.42
2019-02-14T02:16:30.000Z,101699.75
2019-02-14T02:18:57.010Z,101702.80
2019-02-14T02:21:23.958Z,101703.58
2019-02-14T02:23:50.970Z,101702.17
2019-02-14T02:26:18.307Z,101706.02
2019-02-14T02:28:45.761Z,101708.37
2019-02-14T02:31:12.712Z,101703.54
2019-02-14T02:33:39.710Z,101702.84
2019-02-14T02:36:06.597Z,101699.52
2019-02-14T02:38:34.020Z,101697.30
2019-02-14T02:41:00.980Z,101697.52
2019-02-14T02:43:27.935Z,101706.20
2019-02-14T02:45:54.898Z,101704.42
2019-02-14T02:48:21.765Z,101712.97
2019-02-14T02:50:49.209Z,101711.53
2019-02-14T02:53:16.246Z,101717.94
2019-02-14T02:55:43.196Z,101720.73
2019-02-14T02:58:10.171Z,101726.62
2019-02-14T03:00:37.147Z,101724.70
2019-02-14T03:03:04.156Z,101726.70
2019-02-14T03:05:31.117Z,101728.92
2019-02-14T03:07:58.012Z,101726.70
2019-02-14T03:10:25.267Z,101724.22
2019-02-14T03:12:52.245Z,101732.95
2019-02-14T03:15:19.536Z,101730.55
2019-02-14T03:17:46.721Z,101730.14
2019-02-14T03:20:13.701Z,101734.82
2019-02-14T03:22:41.035Z,101740.70
2019-02-14T03:25:08.362Z,101738.82
2019-02-14T03:27:35.253Z,101733.47
2019-02-14T03:30:02.154Z,101730.50
2019-02-14T03:32:30.189Z,101742.32
2019-02-14T03:34:57.146Z,101733.16
2019-02-14T03:37:24.419Z,101740.14
2019-02-14T03:39:51.340Z,101737.02
2019-02-14T03:42:18.312Z,101740.30
2019-02-14T03:44:45.285Z,101747.77
2019-02-14T03:47:12.268Z,101750.50
2019-02-14T03:49:39.263Z,101753.98
2019-02-14T03:52:06.500Z,101745.13
2019-02-14T03:54:33.370Z,101736.20
2019-02-14T03:57:00.293Z,101740.08
2019-02-14T03:59:27.549Z,101735.89
2019-02-14T04:01:54.443Z,101737.27
2019-02-14T04:04:21.339Z,101732.38
2019-02-14T04:06:48.358Z,101734.17
2019-02-14T04:09:15.619Z,101728.28
2019-02-14T04:11:42.665Z,101732.49
2019-02-14T04:14:10.017Z,101730.60
2019-02-14T04:16:37.404Z,101732.77
2019-02-14T04:19:04.371Z,101740.31
2019-02-14T04:21:31.369Z,101738.73
2019-02-14T04:23:58.336Z,101730.28
2019-02-14T04:26:25.337Z,101729.34
2019-02-14T04:28:52.662Z,101723.31
2019-02-14T04:31:19.885Z,101727.36
2019-02-14T04:33:46.822Z,101711.23
2019-02-14T04:36:14.243Z,101712.31
2019-02-14T04:38:41.236Z,101720.08
2019-02-14T04:41:08.144Z,101723.33
2019-02-14T04:43:35.145Z,101720.42
2019-02-14T04:46:02.479Z,101719.34
2019-02-14T04:48:32.786Z,101714.84
2019-02-14T04:51:00.045Z,101719.84
2019-02-14T04:53:26.981Z,101721.88
2019-02-14T04:55:55.153Z,101715.34
2019-02-14T04:58:22.108Z,101719.95
2019-02-14T05:00:49.027Z,101722.63
2019-02-14T05:03:15.973Z,101721.31
2019-02-14T05:05:42.858Z,101725.30
2019-02-14T05:08:10.230Z,101709.65
2019-02-14T05:10:37.166Z,101705.05
2019-02-14T05:13:04.434Z,101710.34
2019-02-14T05:15:31.829Z,101702.13
2019-02-14T05:17:59.142Z,101707.96
2019-02-14T05:20:26.090Z,101704.59
2019-02-14T05:22:53.028Z,101719.28
2019-02-14T05:25:20.273Z,101720.44
2019-02-14T05:27:47.554Z,101725.93
2019-02-14T05:30:14.619Z,101721.29
2019-02-14T05:32:41.597Z,101725.48
2019-02-14T05:35:09.547Z,101722.41
2019-02-14T05:37:36.449Z,101726.10
2019-02-14T05:40:03.397Z,101729.99
2019-02-14T05:42:30.644Z,101722.20
2019-02-14T05:44:58.045Z,101718.66
2019-02-14T05:47:25.342Z,101722.70
2019-02-14T05:49:52.610Z,101723.11
2019-02-14T05:52:19.986Z,101732.88
2019-02-14T05:54:47.332Z,101742.16
2019-02-14T05:57:14.389Z,101740.70
2019-02-14T05:59:41.287Z,101730.64
2019-02-14T06:02:08.172Z,101733.99
2019-02-14T06:04:35.128Z,101742.06
2019-02-14T06:07:02.375Z,101733.59
2019-02-14T06:09:29.402Z,101738.31
2019-02-14T06:11:56.363Z,101735.65
2019-02-14T06:14:23.717Z,101736.56
2019-02-14T06:16:50.631Z,101739.27
2019-02-14T06:19:17.622Z,101735.69
2019-02-14T06:21:44.657Z,101746.23
2019-02-14T06:24:16.515Z,101758.28
2019-02-14T06:26:40.938Z,101764.05
2019-02-14T06:29:07.807Z,101750.00
2019-02-14T06:31:34.692Z,101756.56
2019-02-14T06:34:01.705Z,101760.20
2019-02-14T06:36:28.594Z,101762.05
2019-02-14T06:38:56.549Z,101759.92
2019-02-14T06:41:23.510Z,101770.69
2019-02-14T06:43:50.746Z,101783.84
2019-02-14T06:46:17.669Z,101792.79
2019-02-14T06:48:45.000Z,101803.65
2019-02-14T06:51:11.986Z,101816.22
2019-02-14T06:53:39.279Z,101819.06
2019-02-14T06:56:06.440Z,101805.89
2019-02-14T06:58:33.648Z,101805.20
2019-02-14T07:01:00.664Z,101802.84
2019-02-14T07:03:27.595Z,101817.98
2019-02-14T07:05:54.888Z,101816.89
2019-02-14T07:08:22.257Z,101828.02
2019-02-14T07:10:49.186Z,101818.32
2019-02-14T07:13:16.567Z,101812.55
2019-02-14T07:15:45.132Z,101811.23
2019-02-14T07:18:11.993Z,101807.05
2019-02-14T07:20:41.934Z,101797.80
2019-02-14T07:23:08.926Z,101804.28
2019-02-14T07:25:35.895Z,101799.93
2019-02-14T07:28:02.856Z,101797.73
2019-02-14T07:30:29.822Z,101796.36
2019-02-14T07:32:57.114Z,101798.84
2019-02-14T07:35:24.512Z,101809.52
2019-02-14T07:37:51.828Z,101818.09
2019-02-14T07:40:19.113Z,101820.19
2019-02-14T07:42:46.543Z,101823.29
2019-02-14T07:45:13.495Z,101831.70
2019-02-14T07:47:43.192Z,101840.08
2019-02-14T07:50:10.156Z,101849.11
2019-02-14T07:52:43.403Z,101846.77
2019-02-14T07:55:10.505Z,101854.33
2019-02-14T07:57:37.636Z,101857.73
2019-02-14T08:00:04.665Z,101848.08
2019-02-14T08:02:32.157Z,101846.16
2019-02-14T08:04:59.654Z,101842.02
2019-02-14T08:07:35.467Z,101831.34
2019-02-14T08:09:55.812Z,101832.02
2019-02-14T08:12:23.209Z,101830.08
2019-02-14T08:14:50.175Z,101832.70
2019-02-14T08:17:17.074Z,101848.23
2019-02-14T08:19:43.954Z,101859.53
2019-02-14T08:22:11.208Z,101860.87
2019-02-14T08:24:38.194Z,101854.84
2019-02-14T08:27:05.193Z,101855.61
2019-02-14T08:29:32.130Z,101855.55
2019-02-14T08:31:59.100Z,101859.53
2019-02-14T08:34:26.054Z,101865.19
2019-02-14T08:36:53.017Z,101859.78
2019-02-14T08:39:20.343Z,101858.61
2019-02-14T08:41:47.409Z,101861.99
2019-02-14T08:44:14.775Z,101861.64
2019-02-14T08:46:41.729Z,101869.81
2019-02-14T08:49:08.664Z,101875.88
2019-02-14T08:51:35.975Z,101877.94
2019-02-14T08:54:02.970Z,101873.09
2019-02-14T08:56:30.300Z,101869.54
2019-02-14T08:58:57.241Z,101876.28
2019-02-14T09:01:24.692Z,101886.27
2019-02-14T09:03:51.942Z,101886.45
2019-02-14T09:06:18.878Z,101898.92
2019-02-14T09:08:46.120Z,101889.77
2019-02-14T09:11:13.015Z,101877.93
2019-02-14T09:13:40.026Z,101868.92
2019-02-14T09:16:07.043Z,101869.14
2019-02-14T09:18:34.116Z,101872.18
2019-02-14T09:21:01.550Z,101868.39
2019-02-14T09:23:28.518Z,101869.40
2019-02-14T09:25:55.459Z,101857.73
2019-02-14T09:28:22.725Z,101856.08
2019-02-14T09:30:49.999Z,101865.81
2019-02-14T09:33:17.019Z,101867.29
2019-02-14T09:35:43.985Z,101865.10
2019-02-14T09:38:10.967Z,101861.75
2019-02-14T09:40:38.178Z,101860.30
2019-02-14T09:43:05.087Z,101861.25
2019-02-14T09:45:32.066Z,101858.32
2019-02-14T09:47:59.032Z,101848.38
2019-02-14T09:50:25.979Z,101856.02
2019-02-14T09:52:53.209Z,101862.62
2019-02-14T09:55:20.197Z,101858.26
2019-02-14T09:57:49.137Z,101860.91
2019-02-14T10:00:16.113Z,101842.62
2019-02-14T10:02:43.075Z,101833.23
2019-02-14T10:05:10.006Z,101824.35
2019-02-14T10:07:36.896Z,101832.94
2019-02-14T10:10:04.195Z,101835.47
2019-02-14T10:12:32.961Z,101830.76
2019-02-14T10:14:59.845Z,101830.74
2019-02-14T10:17:27.067Z,101837.09
2019-02-14T10:19:54.054Z,101834.56
2019-02-14T10:22:21.017Z,101829.27
2019-02-14T10:24:48.072Z,101820.59
2019-02-14T10:27:15.354Z,101818.52
2019-02-14T10:29:42.245Z,101817.55
2019-02-14T10:32:09.459Z,101816.77
2019-02-14T10:34:36.821Z,101816.25
2019-02-14T10:37:03.794Z,101813.67
2019-02-14T10:39:31.106Z,101809.17
2019-02-14T10:41:57.977Z,101801.38
2019-02-14T10:44:24.836Z,101802.45
2019-02-14T10:46:51.740Z,101810.57
2019-02-14T10:49:18.719Z,101812.24
2019-02-14T10:51:45.657Z,101809.77
2019-02-14T10:54:12.629Z,101810.50
2019-02-14T10:56:39.927Z,101811.50
2019-02-14T10:59:06.838Z,101815.88
2019-02-14T11:01:33.825Z,101806.97
2019-02-14T11:04:01.222Z,101817.85
2019-02-14T11:06:28.129Z,101813.03
2019-02-14T11:08:55.392Z,101821.06
2019-02-14T11:11:22.361Z,101820.42
2019-02-14T11:13:49.360Z,101824.59
2019-02-14T11:16:16.316Z,101830.44
2019-02-14T11:18:44.594Z,101837.13
2019-02-14T11:21:11.801Z,101845.54
2019-02-14T11:23:38.743Z,101852.12
2019-02-14T11:26:05.795Z,101856.90
2019-02-14T11:28:34.192Z,101850.48
2019-02-14T11:31:01.103Z,101843.23
2019-02-14T11:33:28.143Z,101832.03
2019-02-14T11:35:55.106Z,101826.57
2019-02-14T11:38:21.969Z,101816.83
2019-02-14T11:40:48.874Z,101817.44
2019-02-14T11:43:16.206Z,101815.50
2019-02-14T11:45:43.543Z,101818.20
2019-02-14T11:48:10.439Z,101807.23
2019-02-14T11:50:38.405Z,101806.73
2019-02-14T11:53:13.988Z,101798.03
2019-02-14T11:55:34.328Z,101797.29
2019-02-14T11:58:01.299Z,101797.38
2019-02-14T12:00:28.249Z,101791.16
2019-02-14T12:02:56.297Z,101781.20
2019-02-14T12:05:23.522Z,101787.50
2019-02-14T12:07:50.514Z,101781.12
2019-02-14T12:10:19.053Z,101776.76
2019-02-14T12:12:45.985Z,101771.63
2019-02-14T12:15:14.271Z,101766.72
2019-02-14T12:17:42.841Z,101763.43
2019-02-14T12:20:17.036Z,101757.74
2019-02-14T12:22:46.699Z,101756.39
2019-02-14T12:25:12.894Z,101756.64
2019-02-14T12:27:40.057Z,101750.15
2019-02-14T12:30:07.028Z,101754.35
2019-02-14T12:32:34.011Z,101760.74
2019-02-14T12:35:01.313Z,101751.16
2019-02-14T12:37:28.284Z,101748.50
2019-02-14T12:39:55.226Z,101742.16
2019-02-14T12:42:22.547Z,101739.78
2019-02-14T12:44:49.839Z,101738.29
2019-02-14T12:47:16.943Z,101739.00
2019-02-14T12:49:44.207Z,101734.34
2019-02-14T12:52:13.775Z,101732.02
2019-02-14T12:54:40.825Z,101733.55
2019-02-14T12:57:07.769Z,101731.02
2019-02-14T12:59:34.737Z,101727.42
2019-02-14T13:02:02.010Z,101725.09
2019-02-14T13:04:29.251Z,101724.32
2019-02-14T13:06:56.242Z,101727.70
2019-02-14T13:09:23.295Z,101721.55
2019-02-14T13:11:50.226Z,101722.15
2019-02-14T13:14:17.558Z,101716.36
2019-02-14T13:16:44.579Z,101716.30
2019-02-14T13:19:13.178Z,101722.17
2019-02-14T13:21:40.433Z,101714.43
2019-02-14T13:24:07.438Z,101724.14
2019-02-14T13:26:34.742Z,101724.84
2019-02-14T13:29:01.645Z,101723.81
2019-02-14T13:31:31.852Z,101721.67
2019-02-14T13:33:57.222Z,101727.75
2019-02-14T13:36:24.514Z,101726.25
2019-02-14T13:38:51.562Z,101727.47
2019-02-14T13:41:18.511Z,101715.59
2019-02-14T13:43:45.421Z,101727.42
2019-02-14T13:46:12.407Z,101718.72
2019-02-14T13:48:39.362Z,101720.28
2019-02-14T13:51:06.332Z,101719.26
2019-02-14T13:53:33.272Z,101722.59
2019-02-14T13:56:00.593Z,101716.61
2019-02-14T13:58:27.811Z,101712.03
2019-02-14T14:00:55.054Z,101711.83
2019-02-14T14:03:22.043Z,101710.67
2019-02-14T14:05:49.377Z,101710.84
2019-02-14T14:08:16.379Z,101713.89
2019-02-14T14:10:43.523Z,101708.22
2019-02-14T14:13:10.413Z,101705.38
2019-02-14T14:15:37.389Z,101702.53
2019-02-14T14:18:04.430Z,101698.59
2019-02-14T14:20:32.930Z,101704.64
2019-02-14T14:22:59.837Z,101704.10
2019-02-14T14:25:26.851Z,101708.37
2019-02-14T14:27:53.804Z,101712.37
2019-02-14T14:30:21.090Z,101711.69
2019-02-14T14:32:48.103Z,101707.81
2019-02-14T14:35:15.073Z,101712.75
2019-02-14T14:37:42.068Z,101710.20
2019-02-14T14:40:09.065Z,101707.28
2019-02-14T14:42:36.536Z,101700.86
2019-02-14T14:45:03.784Z,101699.19
2019-02-14T14:47:31.135Z,101697.05
2019-02-14T14:50:00.492Z,101699.81
2019-02-14T14:52:27.802Z,101700.22
2019-02-14T14:54:55.027Z,101690.09
2019-02-14T14:57:22.304Z,101687.72
2019-02-14T14:59:49.268Z,101693.58
2019-02-14T15:02:16.612Z,101691.98
2019-02-14T15:04:43.632Z,101689.61
2019-02-14T15:07:10.647Z,101700.25
2019-02-14T15:09:37.665Z,101697.86
2019-02-14T15:12:04.883Z,101693.96
2019-02-14T15:14:32.182Z,101690.38
2019-02-14T15:16:59.197Z,101695.75
2019-02-14T15:19:26.426Z,101690.27
2019-02-14T15:21:53.390Z,101692.76
2019-02-14T15:24:20.987Z,101691.70
2019-02-14T15:26:47.887Z,101690.95
2019-02-14T15:29:15.757Z,101686.34
2019-02-14T15:31:43.352Z,101682.19
2019-02-14T15:34:10.266Z,101679.55
2019-02-14T15:36:37.197Z,101671.91
2019-02-14T15:39:05.262Z,101672.00
2019-02-14T15:41:32.284Z,101664.81
2019-02-14T15:43:59.256Z,101660.39
2019-02-14T15:46:26.249Z,101658.13
2019-02-14T15:48:53.571Z,101657.90
2019-02-14T15:51:20.540Z,101659.45
2019-02-14T15:53:47.469Z,101660.67
2019-02-14T15:56:14.441Z,101663.47
2019-02-14T15:58:41.658Z,101659.48
2019-02-14T16:01:09.026Z,101653.55
2019-02-14T16:03:38.399Z,101651.42
2019-02-14T16:06:06.209Z,101658.13
2019-02-14T16:08:33.288Z,101653.70
2019-02-14T16:11:01.579Z,101661.98
2019-02-14T16:13:29.272Z,101664.73
2019-02-14T16:15:58.793Z,101663.45
2019-02-14T16:18:26.391Z,101667.53
2019-02-14T16:20:53.365Z,101665.59
2019-02-14T16:23:21.459Z,101658.09
2019-02-14T16:25:50.051Z,101657.45
2019-02-14T16:28:17.070Z,101655.41
2019-02-14T16:30:44.502Z,101658.84
2019-02-14T16:33:11.477Z,101657.49
2019-02-14T16:35:38.424Z,101658.05
2019-02-14T16:38:05.749Z,101653.64
2019-02-14T16:40:42.817Z,101653.71
2019-02-14T16:43:07.540Z,101656.81
2019-02-14T16:45:36.275Z,101654.48
2019-02-14T16:48:05.104Z,101646.72
2019-02-14T16:50:32.055Z,101651.32
2019-02-14T16:52:59.008Z,101653.25
2019-02-14T16:55:26.034Z,101652.29
2019-02-14T16:57:52.957Z,101651.48
2019-02-14T17:00:20.183Z,101650.05
2019-02-14T17:02:47.234Z,101653.72
2019-02-14T17:05:16.991Z,101652.19
2019-02-14T17:07:44.103Z,101653.02
2019-02-14T17:10:11.375Z,101659.28
2019-02-14T17:12:38.340Z,101655.95
2019-02-14T17:15:05.310Z,101657.08
2019-02-14T17:17:32.842Z,101656.14
2019-02-14T17:20:00.668Z,101656.23
2019-02-14T17:22:28.027Z,101659.58
2019-02-14T17:24:55.028Z,101664.77
2019-02-14T17:27:23.579Z,101667.45
2019-02-14T17:29:50.636Z,101673.37
2019-02-14T17:32:20.262Z,101675.00
2019-02-14T17:34:49.185Z,101684.80
2019-02-14T17:37:16.247Z,101680.84
2019-02-14T17:39:43.502Z,101689.92
2019-02-14T17:42:10.482Z,101692.83
2019-02-14T17:44:37.492Z,101680.97
2019-02-14T17:47:06.445Z,101682.88
2019-02-14T17:49:33.767Z,101685.50
2019-02-14T17:52:00.730Z,101682.62
2019-02-14T17:54:28.062Z,101681.09
2019-02-14T17:57:03.243Z,101679.88
2019-02-14T17:59:30.231Z,101676.03
2019-02-14T18:01:57.589Z,101676.78
2019-02-14T18:04:24.951Z,101680.05
2019-02-14T18:07:00.524Z,101684.31
2019-02-14T18:09:27.478Z,101685.05
2019-02-14T18:11:54.776Z,101690.12
2019-02-14T18:14:22.054Z,101691.99
2019-02-14T18:16:48.974Z,101686.33
2019-02-14T18:19:15.981Z,101687.98
2019-02-14T18:21:43.266Z,101687.63
2019-02-14T18:24:10.558Z,101685.05
2019-02-14T18:26:38.005Z,101683.05
2019-02-14T18:29:05.323Z,101685.28
2019-02-14T18:31:32.313Z,101687.50
2019-02-14T18:33:59.582Z,101681.22
2019-02-14T18:36:26.691Z,101682.56
2019-02-14T18:38:59.703Z,101687.08
2019-02-14T18:41:28.279Z,101689.07
2019-02-14T18:43:55.547Z,101679.87
2019-02-14T18:46:22.861Z,101688.58
2019-02-14T18:48:49.865Z,101694.27
2019-02-14T18:51:17.182Z,101698.52
2019-02-14T18:53:44.089Z,101695.90
2019-02-14T18:56:11.044Z,101697.13
2019-02-14T18:58:38.058Z,101692.25
2019-02-14T19:01:05.068Z,101690.69
2019-02-14T19:03:32.017Z,101687.86
2019-02-14T19:05:59.165Z,101676.44
2019-02-14T19:08:26.139Z,101672.80
2019-02-14T19:10:53.197Z,101672.34
2019-02-14T19:13:20.453Z,101667.59
2019-02-14T19:15:49.826Z,101670.77
2019-02-14T19:18:16.810Z,101673.66
2019-02-14T19:20:43.721Z,101657.25
2019-02-14T19:23:10.673Z,101657.77
2019-02-14T19:25:38.063Z,101666.84
2019-02-14T19:28:05.134Z,101663.70
2019-02-14T19:30:32.418Z,101661.48
2019-02-14T19:32:59.368Z,101657.64
2019-02-14T19:35:27.382Z,101660.07
2019-02-14T19:37:55.282Z,101660.22
2019-02-14T19:40:22.521Z,101659.98
2019-02-14T19:42:49.475Z,101663.80
2019-02-14T19:45:16.449Z,101659.38
2019-02-14T19:47:43.826Z,101659.14
2019-02-14T19:50:11.017Z,101654.67
2019-02-14T19:52:38.314Z,101656.48
2019-02-14T19:55:05.761Z,101656.95
2019-02-14T19:57:32.725Z,101663.22
2019-02-14T19:59:59.683Z,101669.81
2019-02-14T20:02:26.609Z,101664.53
2019-02-14T20:04:53.625Z,101663.80
2019-02-14T20:07:24.631Z,101668.17
2019-02-14T20:09:51.679Z,101668.56
2019-02-14T20:12:19.014Z,101665.27
2019-02-14T20:14:45.970Z,101665.92
2019-02-14T20:17:15.981Z,101667.83
2019-02-14T20:19:44.000Z,101662.24
2019-02-14T20:22:13.461Z,101654.44
2019-02-14T20:24:42.439Z,101654.52
2019-02-14T20:27:11.047Z,101659.05
2019-02-14T20:29:38.142Z,101654.27
2019-02-14T20:32:06.666Z,101662.25
2019-02-14T20:34:36.650Z,101648.17
2019-02-14T20:37:03.985Z,101638.86
2019-02-14T20:39:30.989Z,101642.56
2019-02-14T20:41:59.647Z,101636.73
2019-02-14T20:44:26.621Z,101634.71
2019-02-14T20:46:53.675Z,101639.41
2019-02-14T20:49:20.684Z,101643.86
2019-02-14T20:51:49.098Z,101642.59
2019-02-14T20:54:16.035Z,101648.84
2019-02-14T20:56:43.080Z,101647.97
2019-02-14T20:59:10.129Z,101642.79
2019-02-14T21:01:37.116Z,101651.59
2019-02-14T21:04:04.314Z,101652.81
2019-02-14T21:06:31.234Z,101647.66
2019-02-14T21:08:58.504Z,101650.16
2019-02-14T21:11:25.523Z,101650.67
2019-02-14T21:13:52.525Z,101646.63
2019-02-14T21:16:19.852Z,101647.83
2019-02-14T21:18:47.200Z,101652.70
2019-02-14T21:21:14.147Z,101649.00
2019-02-14T21:23:41.104Z,101646.34
2019-02-14T21:26:08.117Z,101642.84
2019-02-14T21:28:35.110Z,101638.89
2019-02-14T21:31:02.094Z,101642.95
2019-02-14T21:33:29.335Z,101651.09
2019-02-14T21:35:56.397Z,101649.47
2019-02-14T21:38:23.852Z,101651.67
2019-02-14T21:40:51.271Z,101651.67
2019-02-14T21:43:18.684Z,101654.89
2019-02-14T21:45:45.716Z,101648.22
2019-02-14T21:48:12.691Z,101653.09
2019-02-14T21:50:39.727Z,101660.77
2019-02-14T21:53:09.054Z,101652.70
2019-02-14T21:55:35.305Z,101657.75
2019-02-14T21:58:04.555Z,101653.31
2019-02-14T22:00:31.029Z,101655.89
2019-02-14T22:02:58.578Z,101647.44
2019-02-14T22:05:26.694Z,101646.29
2019-02-14T22:07:53.911Z,101650.66
2019-02-14T22:10:21.160Z,101653.73
2019-02-14T22:12:48.453Z,101653.80
2019-02-14T22:15:15.535Z,101655.61
2019-02-14T22:17:42.739Z,101655.22
2019-02-14T22:20:10.127Z,101664.23
2019-02-14T22:22:37.474Z,101667.56
2019-02-14T22:25:04.418Z,101664.37
2019-02-14T22:27:31.307Z,101674.58
2019-02-14T22:29:58.689Z,101669.41
2019-02-14T22:32:25.597Z,101675.55
2019-02-14T22:34:52.563Z,101673.59
2019-02-14T22:37:19.484Z,101678.13
2019-02-14T22:39:46.526Z,101674.85
2019-02-14T22:42:14.029Z,101677.86
2019-02-14T22:44:41.082Z,101675.39
2019-02-14T22:47:07.981Z,101678.95
2019-02-14T22:49:35.004Z,101673.41
2019-02-14T22:52:02.004Z,101679.05
2019-02-14T22:54:31.829Z,101683.25
2019-02-14T22:56:58.811Z,101685.28
2019-02-14T22:59:26.132Z,101690.68
2019-02-14T23:01:53.469Z,101693.26
2019-02-14T23:04:20.450Z,101703.57
2019-02-14T23:06:47.758Z,101701.38
2019-02-14T23:09:15.013Z,101703.84
2019-02-14T23:11:41.962Z,101709.56
2019-02-14T23:14:09.212Z,101707.11
2019-02-14T23:16:36.558Z,101707.56
2019-02-14T23:19:03.483Z,101703.91
2019-02-14T23:21:30.498Z,101710.64
2019-02-14T23:23:57.473Z,101708.53
2019-02-14T23:26:24.548Z,101715.63
2019-02-14T23:28:51.602Z,101710.33
2019-02-14T23:31:18.884Z,101716.66
2019-02-14T23:33:45.881Z,101700.73
2019-02-14T23:36:12.934Z,101707.50
2019-02-14T23:38:41.262Z,101701.59
2019-02-14T23:41:08.485Z,101698.95
2019-02-14T23:43:35.765Z,101697.08
2019-02-14T23:46:02.662Z,101699.33
2019-02-14T23:48:29.935Z,101690.84
2019-02-14T23:50:57.350Z,101699.45
2019-02-14T23:53:24.263Z,101703.17
2019-02-14T23:55:51.260Z,101697.27
2019-02-14T23:58:18.541Z,101698.24
